sensor_id;sensor_type;location;lat;lon;timestamp;P1;durP1;ratioP1;P2;durP2;ratioP2
8536;SDS011;4306;50.210;10.628;2023-04-08T00:00:02;17.85;;;9.30;;
8536;SDS011;4306;50.210;10.628;2023-04-08T00:02:30;15.37;;;8.97;;
8536;SDS011;4306;50.210;10.628;2023-04-08T00:04:57;18.52;;;9.73;;
8536;SDS011;4306;50.210;10.628;2023-04-08T00:07:24;21.88;;;9.90;;
8536;SDS011;4306;50.210;10.628;2023-04-08T00:09:52;18.38;;;8.77;;
8536;SDS011;4306;50.210;10.628;2023-04-08T00:12:19;16.90;;;8.80;;
8536;SDS011;4306;50.210;10.628;2023-04-08T00:14:45;23.95;;;12.68;;
8536;SDS011;4306;50.210;10.628;2023-04-08T00:17:12;20.87;;;10.27;;
8536;SDS011;4306;50.210;10.628;2023-04-08T00:19:39;30.67;;;14.38;;
8536;SDS011;4306;50.210;10.628;2023-04-08T00:22:06;31.10;;;13.98;;
8536;SDS011;4306;50.210;10.628;2023-04-08T00:24:33;32.97;;;11.95;;
8536;SDS011;4306;50.210;10.628;2023-04-08T00:27:01;13.43;;;8.45;;
8536;SDS011;4306;50.210;10.628;2023-04-08T00:29:28;15.35;;;8.60;;
8536;SDS011;4306;50.210;10.628;2023-04-08T00:31:55;18.05;;;9.05;;
8536;SDS011;4306;50.210;10.628;2023-04-08T00:34:22;15.30;;;8.65;;
8536;SDS011;4306;50.210;10.628;2023-04-08T00:36:49;13.82;;;7.13;;
8536;SDS011;4306;50.210;10.628;2023-04-08T00:39:16;14.77;;;7.70;;
8536;SDS011;4306;50.210;10.628;2023-04-08T00:41:43;28.00;;;15.00;;
8536;SDS011;4306;50.210;10.628;2023-04-08T00:44:11;17.90;;;9.95;;
8536;SDS011;4306;50.210;10.628;2023-04-08T00:46:38;18.40;;;10.50;;
8536;SDS011;4306;50.210;10.628;2023-04-08T00:49:05;14.90;;;8.45;;
8536;SDS011;4306;50.210;10.628;2023-04-08T00:51:32;10.65;;;7.60;;
8536;SDS011;4306;50.210;10.628;2023-04-08T00:54:00;12.77;;;7.70;;
8536;SDS011;4306;50.210;10.628;2023-04-08T00:56:28;16.13;;;9.10;;
8536;SDS011;4306;50.210;10.628;2023-04-08T00:58:56;13.65;;;8.23;;
8536;SDS011;4306;50.210;10.628;2023-04-08T01:01:27;13.02;;;7.63;;
8536;SDS011;4306;50.210;10.628;2023-04-08T01:04:01;13.50;;;8.20;;
8536;SDS011;4306;50.210;10.628;2023-04-08T01:06:35;13.98;;;7.95;;
8536;SDS011;4306;50.210;10.628;2023-04-08T01:09:07;15.20;;;8.48;;
8536;SDS011;4306;50.210;10.628;2023-04-08T01:11:35;17.27;;;9.53;;
8536;SDS011;4306;50.210;10.628;2023-04-08T01:14:06;16.13;;;8.90;;
8536;SDS011;4306;50.210;10.628;2023-04-08T01:16:37;10.30;;;7.10;;
8536;SDS011;4306;50.210;10.628;2023-04-08T01:19:07;12.35;;;7.88;;
8536;SDS011;4306;50.210;10.628;2023-04-08T01:21:36;10.13;;;6.35;;
8536;SDS011;4306;50.210;10.628;2023-04-08T01:24:05;10.85;;;6.90;;
8536;SDS011;4306;50.210;10.628;2023-04-08T01:26:38;13.00;;;6.97;;
8536;SDS011;4306;50.210;10.628;2023-04-08T01:29:06;11.18;;;6.82;;
8536;SDS011;4306;50.210;10.628;2023-04-08T01:31:33;8.63;;;6.47;;
8536;SDS011;4306;50.210;10.628;2023-04-08T01:34:02;11.07;;;7.57;;
8536;SDS011;4306;50.210;10.628;2023-04-08T01:36:30;11.23;;;7.50;;
8536;SDS011;4306;50.210;10.628;2023-04-08T01:38:58;10.93;;;7.25;;
8536;SDS011;4306;50.210;10.628;2023-04-08T01:41:27;10.57;;;6.63;;
8536;SDS011;4306;50.210;10.628;2023-04-08T01:43:56;11.95;;;6.53;;
8536;SDS011;4306;50.210;10.628;2023-04-08T01:46:24;16.95;;;6.85;;
8536;SDS011;4306;50.210;10.628;2023-04-08T01:48:52;14.48;;;6.90;;
8536;SDS011;4306;50.210;10.628;2023-04-08T01:51:20;11.10;;;7.05;;
8536;SDS011;4306;50.210;10.628;2023-04-08T01:53:48;9.70;;;6.78;;
8536;SDS011;4306;50.210;10.628;2023-04-08T01:56:15;13.95;;;6.65;;
8536;SDS011;4306;50.210;10.628;2023-04-08T01:58:43;13.43;;;6.97;;
8536;SDS011;4306;50.210;10.628;2023-04-08T02:01:16;9.82;;;6.50;;
8536;SDS011;4306;50.210;10.628;2023-04-08T02:03:45;10.65;;;6.95;;
8536;SDS011;4306;50.210;10.628;2023-04-08T02:06:12;10.43;;;6.47;;
8536;SDS011;4306;50.210;10.628;2023-04-08T02:08:39;10.77;;;6.38;;
8536;SDS011;4306;50.210;10.628;2023-04-08T02:11:06;9.02;;;6.30;;
8536;SDS011;4306;50.210;10.628;2023-04-08T02:13:34;11.40;;;6.93;;
8536;SDS011;4306;50.210;10.628;2023-04-08T02:16:02;11.83;;;6.47;;
8536;SDS011;4306;50.210;10.628;2023-04-08T02:18:37;10.65;;;6.30;;
8536;SDS011;4306;50.210;10.628;2023-04-08T02:21:10;10.75;;;6.95;;
8536;SDS011;4306;50.210;10.628;2023-04-08T02:23:40;11.88;;;7.28;;
8536;SDS011;4306;50.210;10.628;2023-04-08T02:26:11;11.10;;;6.20;;
8536;SDS011;4306;50.210;10.628;2023-04-08T02:28:40;13.80;;;6.93;;
8536;SDS011;4306;50.210;10.628;2023-04-08T02:31:09;9.07;;;5.68;;
8536;SDS011;4306;50.210;10.628;2023-04-08T02:33:39;9.32;;;6.30;;
8536;SDS011;4306;50.210;10.628;2023-04-08T02:36:07;10.40;;;5.85;;
8536;SDS011;4306;50.210;10.628;2023-04-08T02:38:36;9.43;;;6.13;;
8536;SDS011;4306;50.210;10.628;2023-04-08T02:41:03;12.25;;;6.85;;
8536;SDS011;4306;50.210;10.628;2023-04-08T02:43:30;9.50;;;6.80;;
8536;SDS011;4306;50.210;10.628;2023-04-08T02:45:57;10.77;;;6.82;;
8536;SDS011;4306;50.210;10.628;2023-04-08T02:48:27;13.68;;;6.78;;
8536;SDS011;4306;50.210;10.628;2023-04-08T02:50:55;9.07;;;6.15;;
8536;SDS011;4306;50.210;10.628;2023-04-08T02:53:22;11.23;;;6.13;;
8536;SDS011;4306;50.210;10.628;2023-04-08T02:55:49;10.00;;;6.65;;
8536;SDS011;4306;50.210;10.628;2023-04-08T02:58:16;9.13;;;6.75;;
8536;SDS011;4306;50.210;10.628;2023-04-08T03:00:43;14.18;;;7.00;;
8536;SDS011;4306;50.210;10.628;2023-04-08T03:03:10;8.55;;;5.72;;
8536;SDS011;4306;50.210;10.628;2023-04-08T03:05:36;10.13;;;6.30;;
8536;SDS011;4306;50.210;10.628;2023-04-08T03:08:05;11.98;;;6.43;;
8536;SDS011;4306;50.210;10.628;2023-04-08T03:10:32;9.15;;;6.22;;
8536;SDS011;4306;50.210;10.628;2023-04-08T03:12:58;11.20;;;6.18;;
8536;SDS011;4306;50.210;10.628;2023-04-08T03:15:25;10.15;;;6.20;;
8536;SDS011;4306;50.210;10.628;2023-04-08T03:17:52;10.20;;;5.70;;
8536;SDS011;4306;50.210;10.628;2023-04-08T03:20:19;11.13;;;6.50;;
8536;SDS011;4306;50.210;10.628;2023-04-08T03:22:46;10.02;;;6.55;;
8536;SDS011;4306;50.210;10.628;2023-04-08T03:25:14;6.75;;;5.05;;
8536;SDS011;4306;50.210;10.628;2023-04-08T03:27:41;9.77;;;5.82;;
8536;SDS011;4306;50.210;10.628;2023-04-08T03:30:08;8.52;;;5.60;;
8536;SDS011;4306;50.210;10.628;2023-04-08T03:32:35;10.60;;;6.00;;
8536;SDS011;4306;50.210;10.628;2023-04-08T03:35:02;9.30;;;5.35;;
8536;SDS011;4306;50.210;10.628;2023-04-08T03:37:29;8.13;;;5.40;;
8536;SDS011;4306;50.210;10.628;2023-04-08T03:39:56;9.93;;;5.75;;
8536;SDS011;4306;50.210;10.628;2023-04-08T03:42:24;8.88;;;6.15;;
8536;SDS011;4306;50.210;10.628;2023-04-08T03:44:51;7.55;;;5.00;;
8536;SDS011;4306;50.210;10.628;2023-04-08T03:47:18;8.13;;;5.43;;
8536;SDS011;4306;50.210;10.628;2023-04-08T03:49:45;10.80;;;6.32;;
8536;SDS011;4306;50.210;10.628;2023-04-08T03:52:12;9.90;;;6.03;;
8536;SDS011;4306;50.210;10.628;2023-04-08T03:54:38;10.88;;;6.22;;
8536;SDS011;4306;50.210;10.628;2023-04-08T03:57:06;11.48;;;6.20;;
8536;SDS011;4306;50.210;10.628;2023-04-08T03:59:35;12.15;;;5.47;;
8536;SDS011;4306;50.210;10.628;2023-04-08T04:02:03;7.30;;;5.20;;
8536;SDS011;4306;50.210;10.628;2023-04-08T04:04:30;10.20;;;5.45;;
8536;SDS011;4306;50.210;10.628;2023-04-08T04:06:57;9.90;;;5.80;;
8536;SDS011;4306;50.210;10.628;2023-04-08T04:09:24;9.07;;;6.03;;
8536;SDS011;4306;50.210;10.628;2023-04-08T04:11:51;9.75;;;5.72;;
8536;SDS011;4306;50.210;10.628;2023-04-08T04:14:18;9.20;;;5.40;;
8536;SDS011;4306;50.210;10.628;2023-04-08T04:16:46;7.95;;;5.22;;
8536;SDS011;4306;50.210;10.628;2023-04-08T04:19:13;9.90;;;5.80;;
8536;SDS011;4306;50.210;10.628;2023-04-08T04:21:41;8.38;;;5.50;;
8536;SDS011;4306;50.210;10.628;2023-04-08T04:24:08;10.82;;;6.38;;
8536;SDS011;4306;50.210;10.628;2023-04-08T04:26:35;9.98;;;6.00;;
8536;SDS011;4306;50.210;10.628;2023-04-08T04:29:02;9.93;;;6.10;;
8536;SDS011;4306;50.210;10.628;2023-04-08T04:31:28;9.75;;;6.05;;
8536;SDS011;4306;50.210;10.628;2023-04-08T04:33:57;12.75;;;6.82;;
8536;SDS011;4306;50.210;10.628;2023-04-08T04:36:23;10.77;;;6.90;;
8536;SDS011;4306;50.210;10.628;2023-04-08T04:38:51;9.25;;;6.10;;
8536;SDS011;4306;50.210;10.628;2023-04-08T04:41:18;12.27;;;6.67;;
8536;SDS011;4306;50.210;10.628;2023-04-08T04:43:45;12.40;;;6.88;;
8536;SDS011;4306;50.210;10.628;2023-04-08T04:46:12;9.63;;;6.82;;
8536;SDS011;4306;50.210;10.628;2023-04-08T04:48:39;8.75;;;6.20;;
8536;SDS011;4306;50.210;10.628;2023-04-08T04:51:07;12.40;;;6.90;;
8536;SDS011;4306;50.210;10.628;2023-04-08T04:53:34;10.00;;;6.80;;
8536;SDS011;4306;50.210;10.628;2023-04-08T04:56:01;10.95;;;7.38;;
8536;SDS011;4306;50.210;10.628;2023-04-08T04:58:28;11.48;;;7.25;;
8536;SDS011;4306;50.210;10.628;2023-04-08T05:00:55;12.70;;;6.78;;
8536;SDS011;4306;50.210;10.628;2023-04-08T05:03:22;12.38;;;7.85;;
8536;SDS011;4306;50.210;10.628;2023-04-08T05:05:50;12.50;;;7.97;;
8536;SDS011;4306;50.210;10.628;2023-04-08T05:08:18;12.05;;;7.68;;
8536;SDS011;4306;50.210;10.628;2023-04-08T05:10:46;14.75;;;7.70;;
8536;SDS011;4306;50.210;10.628;2023-04-08T05:13:14;11.40;;;7.25;;
8536;SDS011;4306;50.210;10.628;2023-04-08T05:15:41;11.50;;;7.38;;
8536;SDS011;4306;50.210;10.628;2023-04-08T05:18:09;8.35;;;6.50;;
8536;SDS011;4306;50.210;10.628;2023-04-08T05:20:36;11.25;;;7.65;;
8536;SDS011;4306;50.210;10.628;2023-04-08T05:23:03;12.25;;;6.97;;
8536;SDS011;4306;50.210;10.628;2023-04-08T05:25:32;10.63;;;7.55;;
8536;SDS011;4306;50.210;10.628;2023-04-08T05:27:59;9.90;;;7.50;;
8536;SDS011;4306;50.210;10.628;2023-04-08T05:30:26;11.63;;;6.45;;
8536;SDS011;4306;50.210;10.628;2023-04-08T05:32:53;9.75;;;6.95;;
8536;SDS011;4306;50.210;10.628;2023-04-08T05:35:20;9.65;;;6.80;;
8536;SDS011;4306;50.210;10.628;2023-04-08T05:37:47;11.93;;;7.32;;
8536;SDS011;4306;50.210;10.628;2023-04-08T05:40:13;9.63;;;6.78;;
8536;SDS011;4306;50.210;10.628;2023-04-08T05:42:42;10.23;;;7.27;;
8536;SDS011;4306;50.210;10.628;2023-04-08T05:45:09;11.95;;;8.18;;
8536;SDS011;4306;50.210;10.628;2023-04-08T05:47:36;10.20;;;6.95;;
8536;SDS011;4306;50.210;10.628;2023-04-08T05:50:03;10.77;;;7.13;;
8536;SDS011;4306;50.210;10.628;2023-04-08T05:52:30;12.05;;;7.45;;
8536;SDS011;4306;50.210;10.628;2023-04-08T05:54:57;12.18;;;7.88;;
8536;SDS011;4306;50.210;10.628;2023-04-08T05:57:24;13.52;;;7.82;;
8536;SDS011;4306;50.210;10.628;2023-04-08T05:59:52;10.13;;;7.43;;
8536;SDS011;4306;50.210;10.628;2023-04-08T06:02:19;11.75;;;6.30;;
8536;SDS011;4306;50.210;10.628;2023-04-08T06:04:45;10.05;;;6.93;;
8536;SDS011;4306;50.210;10.628;2023-04-08T06:07:12;11.82;;;7.32;;
8536;SDS011;4306;50.210;10.628;2023-04-08T06:09:39;11.47;;;6.53;;
8536;SDS011;4306;50.210;10.628;2023-04-08T06:12:06;9.68;;;6.47;;
8536;SDS011;4306;50.210;10.628;2023-04-08T06:14:33;10.30;;;6.63;;
8536;SDS011;4306;50.210;10.628;2023-04-08T06:17:01;11.48;;;7.38;;
8536;SDS011;4306;50.210;10.628;2023-04-08T06:19:29;9.23;;;6.53;;
8536;SDS011;4306;50.210;10.628;2023-04-08T06:21:56;9.13;;;6.70;;
8536;SDS011;4306;50.210;10.628;2023-04-08T06:24:23;10.10;;;6.25;;
8536;SDS011;4306;50.210;10.628;2023-04-08T06:26:51;8.88;;;6.50;;
8536;SDS011;4306;50.210;10.628;2023-04-08T06:29:18;9.77;;;6.00;;
8536;SDS011;4306;50.210;10.628;2023-04-08T06:31:46;11.35;;;6.38;;
8536;SDS011;4306;50.210;10.628;2023-04-08T06:34:14;15.75;;;9.90;;
8536;SDS011;4306;50.210;10.628;2023-04-08T06:36:40;15.88;;;11.15;;
8536;SDS011;4306;50.210;10.628;2023-04-08T06:39:08;13.98;;;10.48;;
8536;SDS011;4306;50.210;10.628;2023-04-08T06:41:34;10.68;;;7.30;;
8536;SDS011;4306;50.210;10.628;2023-04-08T06:44:01;9.85;;;7.20;;
8536;SDS011;4306;50.210;10.628;2023-04-08T06:46:28;11.23;;;6.63;;
8536;SDS011;4306;50.210;10.628;2023-04-08T06:48:55;9.90;;;6.82;;
8536;SDS011;4306;50.210;10.628;2023-04-08T06:51:23;9.03;;;6.00;;
8536;SDS011;4306;50.210;10.628;2023-04-08T06:53:51;9.05;;;5.90;;
8536;SDS011;4306;50.210;10.628;2023-04-08T06:56:18;9.02;;;6.28;;
8536;SDS011;4306;50.210;10.628;2023-04-08T06:58:47;10.10;;;5.75;;
8536;SDS011;4306;50.210;10.628;2023-04-08T07:01:14;7.18;;;5.18;;
8536;SDS011;4306;50.210;10.628;2023-04-08T07:03:41;9.48;;;6.38;;
8536;SDS011;4306;50.210;10.628;2023-04-08T07:06:08;8.73;;;5.18;;
8536;SDS011;4306;50.210;10.628;2023-04-08T07:08:37;6.82;;;4.85;;
8536;SDS011;4306;50.210;10.628;2023-04-08T07:11:04;7.30;;;5.03;;
8536;SDS011;4306;50.210;10.628;2023-04-08T07:13:31;9.27;;;5.82;;
8536;SDS011;4306;50.210;10.628;2023-04-08T07:15:58;9.43;;;5.57;;
8536;SDS011;4306;50.210;10.628;2023-04-08T07:18:25;7.55;;;5.05;;
8536;SDS011;4306;50.210;10.628;2023-04-08T07:20:52;7.78;;;4.65;;
8536;SDS011;4306;50.210;10.628;2023-04-08T07:23:19;12.02;;;8.10;;
8536;SDS011;4306;50.210;10.628;2023-04-08T07:25:48;8.98;;;5.85;;
8536;SDS011;4306;50.210;10.628;2023-04-08T07:28:16;7.28;;;4.95;;
8536;SDS011;4306;50.210;10.628;2023-04-08T07:30:43;6.30;;;4.10;;
8536;SDS011;4306;50.210;10.628;2023-04-08T07:33:10;8.90;;;4.55;;
8536;SDS011;4306;50.210;10.628;2023-04-08T07:35:37;8.15;;;5.00;;
8536;SDS011;4306;50.210;10.628;2023-04-08T07:38:04;7.03;;;4.97;;
8536;SDS011;4306;50.210;10.628;2023-04-08T07:40:35;6.35;;;4.25;;
8536;SDS011;4306;50.210;10.628;2023-04-08T07:43:03;7.82;;;5.28;;
8536;SDS011;4306;50.210;10.628;2023-04-08T07:45:30;6.70;;;4.35;;
8536;SDS011;4306;50.210;10.628;2023-04-08T07:47:57;7.43;;;4.72;;
8536;SDS011;4306;50.210;10.628;2023-04-08T07:50:23;6.30;;;4.40;;
8536;SDS011;4306;50.210;10.628;2023-04-08T07:52:50;6.07;;;4.32;;
8536;SDS011;4306;50.210;10.628;2023-04-08T07:55:18;6.30;;;4.05;;
8536;SDS011;4306;50.210;10.628;2023-04-08T07:57:45;6.15;;;4.55;;
8536;SDS011;4306;50.210;10.628;2023-04-08T08:00:13;8.18;;;5.25;;
8536;SDS011;4306;50.210;10.628;2023-04-08T08:02:45;7.13;;;4.57;;
8536;SDS011;4306;50.210;10.628;2023-04-08T08:05:12;7.25;;;4.63;;
8536;SDS011;4306;50.210;10.628;2023-04-08T08:07:39;5.78;;;4.25;;
8536;SDS011;4306;50.210;10.628;2023-04-08T08:10:06;6.20;;;4.00;;
8536;SDS011;4306;50.210;10.628;2023-04-08T08:12:34;9.13;;;5.63;;
8536;SDS011;4306;50.210;10.628;2023-04-08T08:15:01;6.80;;;4.78;;
8536;SDS011;4306;50.210;10.628;2023-04-08T08:17:29;9.55;;;5.72;;
8536;SDS011;4306;50.210;10.628;2023-04-08T08:19:57;5.05;;;3.63;;
8536;SDS011;4306;50.210;10.628;2023-04-08T08:22:24;5.25;;;3.50;;
8536;SDS011;4306;50.210;10.628;2023-04-08T08:24:54;5.53;;;3.97;;
8536;SDS011;4306;50.210;10.628;2023-04-08T08:27:21;4.88;;;2.90;;
8536;SDS011;4306;50.210;10.628;2023-04-08T08:29:48;5.75;;;3.03;;
8536;SDS011;4306;50.210;10.628;2023-04-08T08:32:15;8.15;;;4.65;;
8536;SDS011;4306;50.210;10.628;2023-04-08T08:34:43;5.13;;;3.10;;
8536;SDS011;4306;50.210;10.628;2023-04-08T08:37:10;5.97;;;3.25;;
8536;SDS011;4306;50.210;10.628;2023-04-08T08:39:37;4.55;;;2.85;;
8536;SDS011;4306;50.210;10.628;2023-04-08T08:42:04;4.85;;;2.85;;
8536;SDS011;4306;50.210;10.628;2023-04-08T08:44:30;3.72;;;2.72;;
8536;SDS011;4306;50.210;10.628;2023-04-08T08:46:57;4.28;;;2.40;;
8536;SDS011;4306;50.210;10.628;2023-04-08T08:49:25;3.72;;;2.40;;
8536;SDS011;4306;50.210;10.628;2023-04-08T08:51:53;4.20;;;2.50;;
8536;SDS011;4306;50.210;10.628;2023-04-08T08:54:21;4.18;;;2.78;;
8536;SDS011;4306;50.210;10.628;2023-04-08T08:56:47;4.22;;;2.33;;
8536;SDS011;4306;50.210;10.628;2023-04-08T08:59:14;3.72;;;2.40;;
8536;SDS011;4306;50.210;10.628;2023-04-08T09:01:41;3.50;;;2.25;;
8536;SDS011;4306;50.210;10.628;2023-04-08T09:04:09;4.18;;;2.50;;
8536;SDS011;4306;50.210;10.628;2023-04-08T09:06:38;3.70;;;2.42;;
8536;SDS011;4306;50.210;10.628;2023-04-08T09:09:06;3.90;;;2.33;;
8536;SDS011;4306;50.210;10.628;2023-04-08T09:11:35;3.60;;;2.13;;
8536;SDS011;4306;50.210;10.628;2023-04-08T09:14:03;11.57;;;3.10;;
8536;SDS011;4306;50.210;10.628;2023-04-08T09:16:31;3.45;;;2.20;;
8536;SDS011;4306;50.210;10.628;2023-04-08T09:19:07;3.25;;;1.92;;
8536;SDS011;4306;50.210;10.628;2023-04-08T09:21:35;3.40;;;2.30;;
8536;SDS011;4306;50.210;10.628;2023-04-08T09:24:04;3.22;;;2.05;;
8536;SDS011;4306;50.210;10.628;2023-04-08T09:26:33;2.45;;;1.63;;
8536;SDS011;4306;50.210;10.628;2023-04-08T09:29:03;3.53;;;1.80;;
8536;SDS011;4306;50.210;10.628;2023-04-08T09:31:31;3.60;;;2.53;;
8536;SDS011;4306;50.210;10.628;2023-04-08T09:34:00;4.43;;;2.78;;
8536;SDS011;4306;50.210;10.628;2023-04-08T09:36:36;3.20;;;2.03;;
8536;SDS011;4306;50.210;10.628;2023-04-08T09:39:03;4.80;;;3.00;;
8536;SDS011;4306;50.210;10.628;2023-04-08T09:41:34;4.18;;;3.17;;
8536;SDS011;4306;50.210;10.628;2023-04-08T09:44:04;3.15;;;2.10;;
8536;SDS011;4306;50.210;10.628;2023-04-08T09:46:32;3.38;;;1.90;;
8536;SDS011;4306;50.210;10.628;2023-04-08T09:49:09;3.30;;;2.28;;
8536;SDS011;4306;50.210;10.628;2023-04-08T09:51:40;3.17;;;2.17;;
8536;SDS011;4306;50.210;10.628;2023-04-08T09:54:13;5.68;;;2.30;;
8536;SDS011;4306;50.210;10.628;2023-04-08T09:56:48;3.58;;;2.35;;
8536;SDS011;4306;50.210;10.628;2023-04-08T09:59:19;5.38;;;3.17;;
8536;SDS011;4306;50.210;10.628;2023-04-08T10:01:52;3.75;;;2.08;;
8536;SDS011;4306;50.210;10.628;2023-04-08T10:04:22;2.72;;;1.65;;
8536;SDS011;4306;50.210;10.628;2023-04-08T10:06:53;2.90;;;1.90;;
8536;SDS011;4306;50.210;10.628;2023-04-08T10:09:26;2.90;;;1.70;;
8536;SDS011;4306;50.210;10.628;2023-04-08T10:11:55;2.55;;;1.50;;
8536;SDS011;4306;50.210;10.628;2023-04-08T10:14:23;3.13;;;1.70;;
8536;SDS011;4306;50.210;10.628;2023-04-08T10:16:57;4.03;;;1.88;;
8536;SDS011;4306;50.210;10.628;2023-04-08T10:19:56;3.10;;;1.98;;
8536;SDS011;4306;50.210;10.628;2023-04-08T10:25:28;3.28;;;1.95;;
8536;SDS011;4306;50.210;10.628;2023-04-08T10:27:56;3.10;;;1.80;;
8536;SDS011;4306;50.210;10.628;2023-04-08T10:30:39;2.92;;;2.20;;
8536;SDS011;4306;50.210;10.628;2023-04-08T10:33:12;3.30;;;1.92;;
8536;SDS011;4306;50.210;10.628;2023-04-08T10:35:42;2.90;;;1.98;;
8536;SDS011;4306;50.210;10.628;2023-04-08T10:38:14;3.63;;;2.30;;
8536;SDS011;4306;50.210;10.628;2023-04-08T10:40:42;3.13;;;1.77;;
8536;SDS011;4306;50.210;10.628;2023-04-08T10:43:11;3.33;;;2.10;;
8536;SDS011;4306;50.210;10.628;2023-04-08T10:45:40;2.30;;;1.60;;
8536;SDS011;4306;50.210;10.628;2023-04-08T10:48:14;3.15;;;1.83;;
8536;SDS011;4306;50.210;10.628;2023-04-08T10:50:42;2.83;;;1.88;;
8536;SDS011;4306;50.210;10.628;2023-04-08T10:53:10;3.50;;;2.13;;
8536;SDS011;4306;50.210;10.628;2023-04-08T10:55:37;3.42;;;2.00;;
8536;SDS011;4306;50.210;10.628;2023-04-08T10:58:04;4.00;;;1.80;;
8536;SDS011;4306;50.210;10.628;2023-04-08T11:00:32;3.10;;;1.73;;
8536;SDS011;4306;50.210;10.628;2023-04-08T11:03:01;2.47;;;1.60;;
8536;SDS011;4306;50.210;10.628;2023-04-08T11:05:31;4.55;;;2.63;;
8536;SDS011;4306;50.210;10.628;2023-04-08T11:07:58;3.08;;;1.90;;
8536;SDS011;4306;50.210;10.628;2023-04-08T11:10:25;3.88;;;2.33;;
8536;SDS011;4306;50.210;10.628;2023-04-08T11:12:53;5.00;;;2.30;;
8536;SDS011;4306;50.210;10.628;2023-04-08T11:15:20;3.60;;;2.30;;
8536;SDS011;4306;50.210;10.628;2023-04-08T11:17:47;5.57;;;3.10;;
8536;SDS011;4306;50.210;10.628;2023-04-08T11:20:15;3.35;;;2.05;;
8536;SDS011;4306;50.210;10.628;2023-04-08T11:22:44;4.80;;;2.72;;
8536;SDS011;4306;50.210;10.628;2023-04-08T11:25:12;5.32;;;2.88;;
8536;SDS011;4306;50.210;10.628;2023-04-08T11:27:39;5.03;;;3.40;;
8536;SDS011;4306;50.210;10.628;2023-04-08T11:30:06;4.63;;;2.92;;
8536;SDS011;4306;50.210;10.628;2023-04-08T11:32:34;4.30;;;2.75;;
8536;SDS011;4306;50.210;10.628;2023-04-08T11:35:03;4.45;;;2.63;;
8536;SDS011;4306;50.210;10.628;2023-04-08T11:37:35;4.10;;;2.65;;
8536;SDS011;4306;50.210;10.628;2023-04-08T11:40:07;11.38;;;4.00;;
8536;SDS011;4306;50.210;10.628;2023-04-08T11:42:34;5.43;;;3.40;;
8536;SDS011;4306;50.210;10.628;2023-04-08T11:45:08;5.03;;;3.22;;
8536;SDS011;4306;50.210;10.628;2023-04-08T11:47:35;5.15;;;3.40;;
8536;SDS011;4306;50.210;10.628;2023-04-08T11:50:03;5.75;;;3.28;;
8536;SDS011;4306;50.210;10.628;2023-04-08T11:52:43;4.85;;;3.20;;
8536;SDS011;4306;50.210;10.628;2023-04-08T11:55:20;5.10;;;3.35;;
8536;SDS011;4306;50.210;10.628;2023-04-08T11:57:48;12.05;;;4.63;;
8536;SDS011;4306;50.210;10.628;2023-04-08T12:00:17;8.73;;;4.47;;
8536;SDS011;4306;50.210;10.628;2023-04-08T12:02:44;21.30;;;4.75;;
8536;SDS011;4306;50.210;10.628;2023-04-08T12:05:11;7.07;;;3.25;;
8536;SDS011;4306;50.210;10.628;2023-04-08T12:07:38;12.20;;;8.80;;
8536;SDS011;4306;50.210;10.628;2023-04-08T12:10:06;6.57;;;3.95;;
8536;SDS011;4306;50.210;10.628;2023-04-08T12:12:35;8.07;;;3.95;;
8536;SDS011;4306;50.210;10.628;2023-04-08T12:15:02;6.15;;;4.25;;
8536;SDS011;4306;50.210;10.628;2023-04-08T12:17:29;6.85;;;4.32;;
8536;SDS011;4306;50.210;10.628;2023-04-08T12:19:56;9.68;;;3.85;;
8536;SDS011;4306;50.210;10.628;2023-04-08T12:22:23;7.60;;;4.50;;
8536;SDS011;4306;50.210;10.628;2023-04-08T12:24:50;9.52;;;3.70;;
8536;SDS011;4306;50.210;10.628;2023-04-08T12:27:17;14.98;;;4.25;;
8536;SDS011;4306;50.210;10.628;2023-04-08T12:29:45;9.68;;;3.67;;
8536;SDS011;4306;50.210;10.628;2023-04-08T12:32:13;20.73;;;5.18;;
8536;SDS011;4306;50.210;10.628;2023-04-08T12:34:40;5.90;;;3.63;;
8536;SDS011;4306;50.210;10.628;2023-04-08T12:37:07;5.45;;;3.60;;
8536;SDS011;4306;50.210;10.628;2023-04-08T12:39:34;6.28;;;3.72;;
8536;SDS011;4306;50.210;10.628;2023-04-08T12:42:01;5.55;;;3.60;;
8536;SDS011;4306;50.210;10.628;2023-04-08T12:44:28;5.25;;;3.60;;
8536;SDS011;4306;50.210;10.628;2023-04-08T12:46:57;7.68;;;3.67;;
8536;SDS011;4306;50.210;10.628;2023-04-08T12:49:24;6.85;;;4.20;;
8536;SDS011;4306;50.210;10.628;2023-04-08T12:51:51;6.00;;;3.95;;
8536;SDS011;4306;50.210;10.628;2023-04-08T12:54:19;5.03;;;3.25;;
8536;SDS011;4306;50.210;10.628;2023-04-08T12:56:45;5.00;;;3.45;;
8536;SDS011;4306;50.210;10.628;2023-04-08T12:59:13;4.95;;;3.17;;
8536;SDS011;4306;50.210;10.628;2023-04-08T13:01:40;6.05;;;3.60;;
8536;SDS011;4306;50.210;10.628;2023-04-08T13:04:08;5.40;;;3.63;;
8536;SDS011;4306;50.210;10.628;2023-04-08T13:06:35;5.85;;;3.13;;
8536;SDS011;4306;50.210;10.628;2023-04-08T13:09:02;4.75;;;2.60;;
8536;SDS011;4306;50.210;10.628;2023-04-08T13:11:29;4.50;;;2.88;;
8536;SDS011;4306;50.210;10.628;2023-04-08T13:13:58;4.93;;;2.88;;
8536;SDS011;4306;50.210;10.628;2023-04-08T13:16:26;5.57;;;3.42;;
8536;SDS011;4306;50.210;10.628;2023-04-08T13:18:56;4.93;;;3.10;;
8536;SDS011;4306;50.210;10.628;2023-04-08T13:21:24;5.22;;;3.75;;
8536;SDS011;4306;50.210;10.628;2023-04-08T13:23:52;4.05;;;2.75;;
8536;SDS011;4306;50.210;10.628;2023-04-08T13:26:19;6.03;;;3.67;;
8536;SDS011;4306;50.210;10.628;2023-04-08T13:28:46;6.30;;;3.60;;
8536;SDS011;4306;50.210;10.628;2023-04-08T13:31:12;4.35;;;2.90;;
8536;SDS011;4306;50.210;10.628;2023-04-08T13:33:39;8.55;;;4.00;;
8536;SDS011;4306;50.210;10.628;2023-04-08T13:36:06;6.20;;;3.90;;
8536;SDS011;4306;50.210;10.628;2023-04-08T13:38:35;5.40;;;3.65;;
8536;SDS011;4306;50.210;10.628;2023-04-08T13:41:02;5.68;;;3.72;;
8536;SDS011;4306;50.210;10.628;2023-04-08T13:43:29;6.15;;;3.95;;
8536;SDS011;4306;50.210;10.628;2023-04-08T13:45:57;5.72;;;3.72;;
8536;SDS011;4306;50.210;10.628;2023-04-08T13:48:24;6.53;;;3.45;;
8536;SDS011;4306;50.210;10.628;2023-04-08T13:50:51;6.40;;;3.70;;
8536;SDS011;4306;50.210;10.628;2023-04-08T13:53:18;7.43;;;5.25;;
8536;SDS011;4306;50.210;10.628;2023-04-08T13:55:46;5.45;;;3.45;;
8536;SDS011;4306;50.210;10.628;2023-04-08T13:58:18;6.20;;;4.30;;
8536;SDS011;4306;50.210;10.628;2023-04-08T14:00:46;6.28;;;3.65;;
8536;SDS011;4306;50.210;10.628;2023-04-08T14:03:13;5.35;;;3.72;;
8536;SDS011;4306;50.210;10.628;2023-04-08T14:05:40;8.85;;;5.57;;
8536;SDS011;4306;50.210;10.628;2023-04-08T14:08:07;6.72;;;4.10;;
8536;SDS011;4306;50.210;10.628;2023-04-08T14:10:34;6.60;;;4.00;;
8536;SDS011;4306;50.210;10.628;2023-04-08T14:13:02;7.40;;;4.38;;
8536;SDS011;4306;50.210;10.628;2023-04-08T14:15:29;6.05;;;4.18;;
8536;SDS011;4306;50.210;10.628;2023-04-08T14:17:56;6.18;;;4.20;;
8536;SDS011;4306;50.210;10.628;2023-04-08T14:20:24;6.95;;;4.30;;
8536;SDS011;4306;50.210;10.628;2023-04-08T14:22:52;7.93;;;5.32;;
8536;SDS011;4306;50.210;10.628;2023-04-08T14:25:20;7.93;;;5.25;;
8536;SDS011;4306;50.210;10.628;2023-04-08T14:27:47;12.10;;;7.38;;
8536;SDS011;4306;50.210;10.628;2023-04-08T14:30:15;8.80;;;5.57;;
8536;SDS011;4306;50.210;10.628;2023-04-08T14:32:42;9.48;;;5.68;;
8536;SDS011;4306;50.210;10.628;2023-04-08T14:35:09;8.30;;;5.60;;
8536;SDS011;4306;50.210;10.628;2023-04-08T14:37:36;8.18;;;4.45;;
8536;SDS011;4306;50.210;10.628;2023-04-08T14:40:03;7.93;;;4.70;;
8536;SDS011;4306;50.210;10.628;2023-04-08T14:42:31;8.93;;;5.40;;
8536;SDS011;4306;50.210;10.628;2023-04-08T14:44:58;7.82;;;4.82;;
8536;SDS011;4306;50.210;10.628;2023-04-08T14:47:26;9.48;;;4.78;;
8536;SDS011;4306;50.210;10.628;2023-04-08T14:49:53;8.07;;;5.00;;
8536;SDS011;4306;50.210;10.628;2023-04-08T14:52:20;7.20;;;4.80;;
8536;SDS011;4306;50.210;10.628;2023-04-08T14:54:47;9.05;;;6.05;;
8536;SDS011;4306;50.210;10.628;2023-04-08T14:57:14;9.13;;;5.07;;
8536;SDS011;4306;50.210;10.628;2023-04-08T14:59:41;7.80;;;4.70;;
8536;SDS011;4306;50.210;10.628;2023-04-08T15:02:09;7.47;;;5.05;;